createdAt,value
2023-04-15T00:01:11.847Z,7.70
2023-04-15T00:03:41.591Z,7.67
2023-04-15T00:06:09.853Z,7.65
2023-04-15T00:08:37.883Z,7.58
2023-04-15T00:11:06.183Z,7.60
2023-04-15T00:13:34.855Z,7.60
2023-04-15T00:16:02.877Z,7.59
2023-04-15T00:18:31.736Z,7.60
2023-04-15T00:21:01.237Z,7.62
2023-04-15T00:23:29.373Z,7.62
2023-04-15T00:25:57.460Z,7.60
2023-04-15T00:28:25.520Z,7.61
2023-04-15T00:30:53.563Z,7.65
2023-04-15T00:33:21.601Z,7.65
2023-04-15T00:35:49.573Z,7.68
2023-04-15T00:38:20.206Z,7.67
2023-04-15T00:40:48.380Z,7.70
2023-04-15T00:43:16.472Z,7.61
2023-04-15T00:45:47.213Z,7.67
2023-04-15T00:48:15.732Z,7.61
2023-04-15T00:50:43.806Z,7.61
2023-04-15T00:53:12.357Z,7.65
2023-04-15T00:55:41.748Z,7.63
2023-04-15T00:58:09.772Z,7.59
2023-04-15T01:00:38.330Z,7.60
2023-04-15T01:03:06.364Z,7.56
2023-04-15T01:05:34.943Z,7.64
2023-04-15T01:08:03.764Z,7.62
2023-04-15T01:10:32.877Z,7.67
2023-04-15T01:13:02.278Z,7.61
2023-04-15T01:15:30.711Z,7.67
2023-04-15T01:17:59.901Z,7.67
2023-04-15T01:20:28.595Z,7.68
2023-04-15T01:22:57.234Z,7.68
2023-04-15T01:25:33.301Z,7.71
2023-04-15T01:28:02.180Z,7.70
2023-04-15T01:30:30.521Z,7.66
2023-04-15T01:32:58.550Z,7.63
2023-04-15T01:35:45.445Z,7.63
2023-04-15T01:38:13.653Z,7.57
2023-04-15T01:40:42.919Z,7.54
2023-04-15T01:43:12.133Z,7.49
2023-04-15T01:45:41.820Z,7.41
2023-04-15T01:48:10.980Z,7.44
2023-04-15T01:50:40.337Z,7.39
2023-04-15T01:53:09.822Z,7.39
2023-04-15T01:55:39.235Z,7.28
2023-04-15T01:58:10.445Z,7.26
2023-04-15T02:00:39.941Z,7.24
2023-04-15T02:03:09.955Z,7.23
2023-04-15T02:05:39.233Z,7.28
2023-04-15T02:08:08.533Z,7.26
2023-04-15T02:10:40.156Z,7.24
2023-04-15T02:13:10.904Z,7.20
2023-04-15T02:15:40.107Z,7.10
2023-04-15T02:18:09.343Z,7.20
2023-04-15T02:20:39.772Z,7.22
2023-04-15T02:23:09.042Z,7.15
2023-04-15T02:25:38.959Z,7.18
2023-04-15T02:28:09.937Z,7.19
2023-04-15T02:30:40.847Z,7.14
2023-04-15T02:33:10.112Z,7.09
2023-04-15T02:35:42.652Z,7.07
2023-04-15T02:38:11.981Z,7.03
2023-04-15T02:40:41.608Z,7.09
2023-04-15T02:43:12.557Z,7.10
2023-04-15T02:45:43.554Z,7.05
2023-04-15T02:48:13.007Z,7.12
2023-04-15T02:50:42.151Z,6.97
2023-04-15T02:53:16.184Z,6.99
2023-04-15T02:55:45.406Z,6.99
2023-04-15T02:58:16.350Z,6.99
2023-04-15T03:00:45.636Z,7.04
2023-04-15T03:03:15.355Z,7.02
2023-04-15T03:05:45.570Z,7.03
2023-04-15T03:08:15.888Z,6.95
2023-04-15T03:10:45.218Z,6.91
2023-04-15T03:13:15.771Z,7.01
2023-04-15T03:15:47.624Z,7.06
2023-04-15T03:18:16.932Z,7.05
2023-04-15T03:20:46.207Z,7.03
2023-04-15T03:23:15.983Z,7.08
2023-04-15T03:25:46.446Z,7.02
2023-04-15T03:28:18.688Z,7.06
2023-04-15T03:30:48.167Z,7.03
2023-04-15T03:33:17.495Z,7.03
2023-04-15T03:35:46.855Z,7.09
2023-04-15T03:38:16.426Z,6.99
2023-04-15T03:40:46.783Z,7.03
2023-04-15T03:43:16.649Z,7.03
2023-04-15T03:45:47.204Z,7.05
2023-04-15T03:48:18.101Z,7.07
2023-04-15T03:50:48.363Z,7.04
2023-04-15T03:53:42.918Z,7.01
2023-04-15T03:56:12.121Z,7.07
2023-04-15T03:58:41.484Z,7.08
2023-04-15T04:01:12.231Z,7.04
2023-04-15T04:03:41.531Z,7.05
2023-04-15T04:06:12.657Z,7.09
2023-04-15T04:08:41.690Z,7.12
2023-04-15T04:11:10.882Z,7.10
2023-04-15T04:13:40.094Z,7.09
2023-04-15T04:16:09.484Z,7.10
2023-04-15T04:18:40.130Z,7.10
2023-04-15T04:21:09.535Z,7.14
2023-04-15T04:23:38.804Z,7.12
2023-04-15T04:26:08.014Z,7.09
2023-04-15T04:28:37.209Z,7.10
2023-04-15T04:31:06.768Z,7.06
2023-04-15T04:33:36.081Z,7.10
2023-04-15T04:36:07.298Z,7.08
2023-04-15T04:38:36.520Z,7.12
2023-04-15T04:41:59.087Z,7.09
2023-04-15T04:44:28.266Z,7.15
2023-04-15T04:46:57.512Z,7.12
2023-04-15T04:49:26.708Z,7.17
2023-04-15T04:51:57.543Z,7.20
2023-04-15T04:54:27.754Z,7.19
2023-04-15T04:56:57.890Z,7.12
2023-04-15T04:59:27.045Z,7.09
2023-04-15T05:01:56.531Z,7.17
2023-04-15T05:04:26.306Z,7.15
2023-04-15T05:06:56.884Z,7.13
2023-04-15T05:09:26.129Z,7.12
2023-04-15T05:11:56.702Z,7.12
2023-04-15T05:15:15.889Z,7.07
2023-04-15T05:17:45.143Z,7.18
2023-04-15T05:20:14.736Z,7.17
2023-04-15T05:22:45.494Z,7.23
2023-04-15T05:25:14.808Z,7.20
2023-04-15T05:27:44.107Z,7.21
2023-04-15T05:30:13.898Z,7.22
2023-04-15T05:32:43.171Z,7.22
2023-04-15T05:35:12.414Z,7.22
2023-04-15T05:37:41.582Z,7.22
2023-04-15T05:40:12.856Z,7.26
2023-04-15T05:42:42.154Z,7.26
2023-04-15T05:45:12.352Z,7.33
2023-04-15T05:47:41.973Z,7.33
2023-04-15T05:50:12.105Z,7.34
2023-04-15T05:52:41.412Z,7.34
2023-04-15T05:55:12.508Z,7.37
2023-04-15T05:57:41.537Z,7.40
2023-04-15T06:00:11.880Z,7.44
2023-04-15T06:02:41.818Z,7.43
2023-04-15T06:05:11.898Z,7.41
2023-04-15T06:07:41.157Z,7.40
2023-04-15T06:10:12.710Z,7.46
2023-04-15T06:12:41.972Z,7.48
2023-04-15T06:15:12.069Z,7.53
2023-04-15T06:21:49.520Z,7.55
2023-04-15T06:24:18.698Z,7.51
2023-04-15T06:26:49.318Z,7.57
2023-04-15T06:29:18.598Z,7.63
2023-04-15T06:31:48.650Z,7.63
2023-04-15T06:34:17.917Z,7.59
2023-04-15T06:36:47.113Z,7.64
2023-04-15T06:39:16.343Z,7.62
2023-04-15T06:41:45.674Z,7.66
2023-04-15T06:44:17.069Z,7.72
2023-04-15T06:46:46.372Z,7.79
2023-04-15T06:50:06.718Z,7.78
2023-04-15T06:52:36.871Z,7.83
2023-04-15T06:55:07.038Z,7.88
2023-04-15T06:57:36.398Z,7.83
2023-04-15T07:00:08.622Z,7.85
2023-04-15T07:02:38.062Z,7.81
2023-04-15T07:05:08.927Z,7.90
2023-04-15T07:07:38.389Z,7.92
2023-04-15T07:10:08.883Z,7.86
2023-04-15T07:12:38.106Z,7.95
2023-04-15T07:15:09.531Z,7.96
2023-04-15T07:21:51.245Z,8.02
2023-04-15T07:24:20.760Z,7.97
2023-04-15T07:26:49.956Z,7.94
2023-04-15T07:29:19.260Z,7.99
2023-04-15T07:31:49.786Z,7.98
2023-04-15T07:34:44.960Z,7.94
2023-04-15T07:37:14.595Z,8.02
2023-04-15T07:39:43.802Z,8.06
2023-04-15T07:42:13.104Z,8.12
2023-04-15T07:44:42.290Z,8.07
2023-04-15T07:47:12.961Z,8.06
2023-04-15T07:49:43.010Z,8.06
2023-04-15T07:52:12.433Z,7.97
2023-04-15T07:54:41.794Z,8.13
2023-04-15T07:57:11.219Z,8.08
2023-04-15T07:59:40.525Z,8.10
2023-04-15T08:02:09.884Z,8.09
2023-04-15T08:04:40.853Z,8.12
2023-04-15T08:07:09.981Z,8.16
2023-04-15T08:09:39.182Z,8.25
2023-04-15T08:12:12.459Z,8.27
2023-04-15T08:14:41.871Z,8.35
2023-04-15T08:17:11.112Z,8.40
2023-04-15T08:19:42.515Z,8.51
2023-04-15T08:22:17.935Z,8.53
2023-04-15T08:24:48.195Z,8.54
2023-04-15T08:27:17.527Z,8.56
2023-04-15T08:29:47.232Z,8.54
2023-04-15T08:32:17.013Z,8.55
2023-04-15T08:34:48.279Z,8.59
2023-04-15T08:37:17.602Z,8.69
2023-04-15T08:39:46.987Z,8.77
2023-04-15T08:42:18.770Z,8.84
2023-04-15T08:44:49.476Z,8.84
2023-04-15T08:47:22.539Z,8.87
2023-04-15T08:49:56.447Z,8.92
2023-04-15T08:52:27.038Z,8.92
2023-04-15T08:55:02.484Z,8.91
2023-04-15T08:57:32.852Z,8.94
2023-04-15T09:00:07.681Z,9.04
2023-04-15T09:02:37.199Z,9.03
2023-04-15T09:05:09.495Z,9.13
2023-04-15T09:07:38.850Z,9.10
2023-04-15T09:10:09.429Z,9.20
2023-04-15T09:12:39.004Z,9.29
2023-04-15T09:15:34.014Z,9.46
2023-04-15T09:18:03.222Z,9.52
2023-04-15T09:20:41.158Z,9.61
2023-04-15T09:23:14.324Z,9.60
2023-04-15T09:25:43.818Z,9.82
2023-04-15T09:28:13.077Z,9.92
2023-04-15T09:30:46.363Z,10.01
2023-04-15T09:33:15.944Z,9.99
2023-04-15T09:35:58.342Z,10.18
2023-04-15T09:38:27.640Z,10.20
2023-04-15T09:40:57.222Z,10.25
2023-04-15T09:43:40.026Z,10.29
2023-04-15T09:46:09.360Z,10.32
2023-04-15T09:48:38.554Z,10.46
2023-04-15T09:51:09.212Z,10.51
2023-04-15T09:53:38.966Z,10.52
2023-04-15T09:56:10.574Z,10.82
2023-04-15T09:58:41.666Z,11.19
2023-04-15T10:01:11.761Z,11.00
2023-04-15T10:03:43.400Z,11.13
2023-04-15T10:06:15.093Z,11.24
2023-04-15T10:08:44.293Z,11.35
2023-04-15T10:11:14.070Z,11.30
2023-04-15T10:13:43.305Z,11.32
2023-04-15T10:16:15.409Z,11.32
2023-04-15T10:18:46.247Z,11.34
2023-04-15T10:21:18.822Z,11.51
2023-04-15T10:23:48.379Z,11.42
2023-04-15T10:26:18.401Z,11.35
2023-04-15T10:28:48.972Z,11.20
2023-04-15T10:31:20.148Z,11.33
2023-04-15T10:33:50.650Z,11.39
2023-04-15T10:36:22.360Z,11.47
2023-04-15T10:38:51.608Z,11.50
2023-04-15T10:41:22.365Z,11.31
2023-04-15T10:43:53.580Z,11.45
2023-04-15T10:46:24.596Z,11.44
2023-04-15T10:48:55.094Z,11.29
2023-04-15T10:51:32.821Z,11.34
2023-04-15T10:54:02.212Z,11.13
2023-04-15T10:56:31.856Z,11.09
2023-04-15T10:59:02.444Z,11.19
2023-04-15T11:01:55.060Z,11.31
2023-04-15T11:04:52.742Z,11.37
2023-04-15T11:07:39.996Z,11.52
2023-04-15T11:10:52.886Z,11.69
2023-04-15T11:13:29.458Z,11.67
2023-04-15T11:16:01.446Z,11.76
2023-04-15T11:18:33.019Z,11.87
2023-04-15T11:21:05.246Z,12.26
2023-04-15T11:23:41.219Z,12.08
2023-04-15T11:26:12.461Z,12.11
2023-04-15T11:28:43.513Z,12.26
2023-04-15T11:31:14.339Z,12.40
2023-04-15T11:33:48.309Z,12.53
2023-04-15T11:36:17.851Z,12.90
2023-04-15T11:38:49.175Z,13.01
2023-04-15T11:41:22.512Z,13.03
2023-04-15T11:43:51.893Z,13.08
2023-04-15T11:46:22.568Z,13.23
2023-04-15T11:48:51.957Z,13.76
2023-04-15T11:51:22.744Z,13.79
2023-04-15T11:53:52.422Z,14.35
2023-04-15T11:56:22.145Z,14.53
2023-04-15T11:58:53.590Z,14.51
2023-04-15T12:01:21.721Z,14.96
2023-04-15T12:03:50.637Z,15.10
2023-04-15T12:06:20.247Z,15.44
2023-04-15T12:09:01.606Z,15.66
2023-04-15T12:11:38.242Z,15.90
2023-04-15T12:14:12.680Z,15.80
2023-04-15T12:16:49.284Z,16.17
2023-04-15T12:19:20.337Z,15.75
2023-04-15T12:21:51.351Z,15.62
2023-04-15T12:24:23.779Z,15.52
2023-04-15T12:26:53.474Z,16.16
2023-04-15T12:29:26.001Z,16.55
2023-04-15T12:31:55.710Z,16.51
2023-04-15T12:35:13.397Z,17.06
2023-04-15T12:37:41.408Z,16.68
2023-04-15T12:40:11.908Z,16.70
2023-04-15T12:42:40.155Z,16.87
2023-04-15T12:45:08.927Z,15.97
2023-04-15T12:47:37.518Z,15.86
2023-04-15T12:50:06.385Z,15.66
2023-04-15T12:52:34.431Z,15.49
2023-04-15T12:55:02.434Z,15.65
2023-04-15T12:57:32.338Z,15.97
2023-04-15T13:00:00.360Z,15.75
2023-04-15T13:02:29.012Z,15.80
2023-04-15T13:04:57.324Z,15.86
2023-04-15T13:07:25.630Z,15.61
2023-04-15T13:09:53.621Z,15.57
2023-04-15T13:12:21.848Z,15.98
2023-04-15T13:14:51.285Z,16.02
2023-04-15T13:17:21.476Z,16.03
2023-04-15T13:19:49.519Z,16.35
2023-04-15T13:22:17.627Z,16.52
2023-04-15T13:24:45.639Z,16.01
2023-04-15T13:27:13.626Z,16.66
2023-04-15T13:30:31.532Z,17.18
2023-04-15T13:33:01.022Z,16.55
2023-04-15T13:35:29.077Z,16.26
2023-04-15T13:37:57.103Z,16.15
2023-04-15T13:40:25.399Z,16.25
2023-04-15T13:42:54.821Z,16.06
2023-04-15T13:45:22.884Z,15.81
2023-04-15T13:47:51.114Z,15.83
2023-04-15T13:50:20.829Z,15.61
2023-04-15T13:52:48.847Z,15.62
2023-04-15T13:55:19.945Z,15.57
2023-04-15T13:57:50.456Z,15.46
2023-04-15T14:00:18.679Z,15.48
2023-04-15T14:02:46.977Z,15.08
2023-04-15T14:05:15.211Z,15.20
2023-04-15T14:07:44.531Z,15.38
2023-04-15T14:10:12.624Z,15.34
2023-04-15T14:12:40.579Z,15.33
2023-04-15T14:15:09.430Z,15.22
2023-04-15T14:17:37.943Z,15.42
2023-04-15T14:20:09.453Z,15.31
2023-04-15T14:22:37.470Z,15.27
2023-04-15T14:25:07.919Z,15.66
2023-04-15T14:27:35.870Z,15.67
2023-04-15T14:30:03.954Z,15.71
2023-04-15T14:32:31.973Z,16.10
2023-04-15T14:34:59.970Z,15.89
2023-04-15T14:37:28.631Z,16.30
2023-04-15T14:39:56.713Z,16.66
2023-04-15T14:42:26.674Z,16.89
2023-04-15T14:44:54.744Z,17.04
2023-04-15T14:47:22.783Z,16.86
2023-04-15T14:49:50.978Z,16.81
2023-04-15T14:52:18.926Z,17.21
2023-04-15T14:54:47.056Z,16.82
2023-04-15T14:57:15.538Z,16.86
2023-04-15T14:59:45.041Z,17.13
2023-04-15T15:02:17.163Z,16.91
2023-04-15T15:04:49.424Z,17.08
2023-04-15T15:07:17.673Z,17.14
2023-04-15T15:09:46.206Z,17.02
2023-04-15T15:12:14.221Z,16.62
2023-04-15T15:14:42.268Z,17.12
2023-04-15T15:17:12.471Z,17.27
2023-04-15T15:19:40.597Z,17.23
2023-04-15T15:22:08.654Z,17.36
2023-04-15T15:24:36.631Z,17.26
2023-04-15T15:27:05.905Z,16.87
2023-04-15T15:29:33.993Z,16.99
2023-04-15T15:32:02.051Z,17.18
2023-04-15T15:34:31.481Z,16.67
2023-04-15T15:36:59.630Z,17.00
2023-04-15T15:39:27.796Z,17.12
2023-04-15T15:41:56.217Z,17.15
2023-04-15T15:44:24.359Z,17.16
2023-04-15T15:46:52.531Z,17.36
2023-04-15T15:49:20.916Z,17.42
2023-04-15T15:51:50.638Z,17.54
2023-04-15T15:54:19.009Z,17.80
2023-04-15T15:56:46.995Z,17.41
2023-04-15T15:59:15.044Z,17.85
2023-04-15T16:01:44.059Z,18.23
2023-04-15T16:04:12.427Z,17.87
2023-04-15T16:06:40.654Z,17.45
2023-04-15T16:09:10.429Z,17.56
2023-04-15T16:11:38.634Z,17.62
2023-04-15T16:14:06.874Z,17.33
2023-04-15T16:16:35.222Z,17.09
2023-04-15T16:19:03.707Z,16.99
2023-04-15T16:21:32.464Z,17.03
2023-04-15T16:24:00.524Z,16.79
2023-04-15T16:26:30.185Z,16.56
2023-04-15T16:28:58.580Z,15.95
2023-04-15T16:31:26.941Z,16.03
2023-04-15T16:33:55.529Z,15.31
2023-04-15T16:36:23.544Z,15.47
2023-04-15T16:38:51.720Z,15.76
2023-04-15T16:41:20.052Z,15.41
2023-04-15T16:43:49.646Z,15.20
2023-04-15T16:46:17.876Z,14.97
2023-04-15T16:48:46.183Z,14.85
2023-04-15T16:51:14.360Z,14.77
2023-04-15T16:53:42.399Z,14.48
2023-04-15T16:56:10.491Z,14.38
2023-04-15T16:58:38.558Z,14.33
2023-04-15T17:01:08.220Z,14.22
2023-04-15T17:03:36.913Z,14.23
2023-04-15T17:06:05.387Z,14.17
2023-04-15T17:08:33.419Z,13.99
2023-04-15T17:11:01.637Z,13.89
2023-04-15T17:13:29.782Z,13.83
2023-04-15T17:15:57.964Z,13.78
2023-04-15T17:18:34.005Z,13.77
2023-04-15T17:21:05.937Z,13.68
2023-04-15T17:23:34.553Z,13.62
2023-04-15T17:26:04.624Z,13.60
2023-04-15T17:28:33.075Z,13.48
2023-04-15T17:31:04.981Z,13.35
2023-04-15T17:34:01.533Z,13.36
2023-04-15T17:36:56.752Z,13.28
2023-04-15T17:39:44.754Z,13.27
2023-04-15T17:42:32.726Z,13.11
2023-04-15T17:45:20.817Z,13.07
2023-04-15T17:48:08.977Z,13.08
2023-04-15T17:50:58.413Z,13.00
2023-04-15T17:53:46.423Z,12.90
2023-04-15T17:56:34.761Z,12.81
2023-04-15T17:59:22.760Z,12.72
2023-04-15T18:02:11.273Z,12.70
2023-04-15T18:04:59.581Z,12.62
2023-04-15T18:07:49.479Z,12.59
2023-04-15T18:10:37.995Z,12.58
2023-04-15T18:13:26.230Z,12.51
2023-04-15T18:16:14.311Z,12.50
2023-04-15T18:19:02.289Z,12.46
2023-04-15T18:21:30.329Z,12.40
2023-04-15T18:23:59.701Z,12.20
2023-04-15T18:26:28.693Z,12.11
2023-04-15T18:28:56.926Z,12.14
2023-04-15T18:31:25.142Z,12.12
2023-04-15T18:33:53.469Z,12.12
2023-04-15T18:36:21.688Z,12.09
2023-04-15T18:38:49.913Z,11.99
2023-04-15T18:41:19.343Z,11.96
2023-04-15T18:43:47.415Z,11.97
2023-04-15T18:46:15.453Z,11.91
2023-04-15T18:48:43.684Z,11.87
2023-04-15T18:51:12.011Z,11.87
2023-04-15T18:53:40.042Z,11.83
2023-04-15T18:56:08.375Z,11.83
2023-04-15T18:59:27.520Z,11.81
2023-04-15T19:01:26.399Z,11.75
2023-04-15T19:04:20.478Z,11.72
2023-04-15T19:06:48.796Z,11.68
2023-04-15T19:09:16.964Z,11.66
2023-04-15T19:11:45.015Z,11.66
2023-04-15T19:14:14.611Z,11.59
2023-04-15T19:16:42.626Z,11.62
2023-04-15T19:19:10.688Z,11.61
2023-04-15T19:21:38.755Z,11.57
2023-04-15T19:24:07.332Z,11.56
2023-04-15T19:26:36.767Z,11.50
2023-04-15T19:29:05.105Z,11.43
2023-04-15T19:31:34.790Z,11.40
2023-04-15T19:34:03.086Z,11.35
2023-04-15T19:36:31.509Z,11.30
2023-04-15T19:39:00.648Z,11.25
2023-04-15T19:41:28.650Z,11.19
2023-04-15T19:43:56.733Z,11.16
2023-04-15T19:46:25.244Z,11.09
2023-04-15T19:48:55.875Z,11.04
2023-04-15T19:51:24.012Z,10.99
2023-04-15T19:53:53.914Z,10.96
2023-04-15T19:56:23.902Z,10.89
2023-04-15T19:58:53.119Z,10.82
2023-04-15T20:01:21.733Z,10.77
2023-04-15T20:03:50.202Z,10.69
2023-04-15T20:06:19.665Z,10.62
2023-04-15T20:08:47.626Z,10.56
2023-04-15T20:11:15.712Z,10.52
2023-04-15T20:13:43.890Z,10.49
2023-04-15T20:16:12.859Z,10.44
2023-04-15T20:18:41.447Z,10.39
2023-04-15T20:21:09.612Z,10.35
2023-04-15T20:23:38.989Z,10.30
2023-04-15T20:26:07.061Z,10.23
2023-04-15T20:28:35.296Z,10.16
2023-04-15T20:31:03.561Z,10.12
2023-04-15T20:33:31.823Z,10.08
2023-04-15T20:36:00.173Z,10.04
2023-04-15T20:38:28.349Z,10.02
2023-04-15T20:40:58.228Z,9.98
2023-04-15T20:43:26.362Z,9.92
2023-04-15T20:45:57.546Z,9.87
2023-04-15T20:48:26.906Z,9.87
2023-04-15T20:50:54.878Z,9.82
2023-04-15T20:53:22.921Z,9.80
2023-04-15T20:55:51.025Z,9.79
2023-04-15T20:58:20.528Z,9.77
2023-04-15T21:00:48.493Z,9.75
2023-04-15T21:03:16.754Z,9.74
2023-04-15T21:05:45.095Z,9.68
2023-04-15T21:08:13.122Z,9.68
2023-04-15T21:10:41.265Z,9.67
2023-04-15T21:14:00.502Z,9.66
2023-04-15T21:16:30.155Z,9.64
2023-04-15T21:18:58.229Z,9.62
2023-04-15T21:21:27.118Z,9.60
2023-04-15T21:23:55.134Z,9.61
2023-04-15T21:26:23.205Z,9.61
2023-04-15T21:28:51.220Z,9.63
2023-04-15T21:36:11.852Z,9.59
2023-04-15T21:38:39.839Z,9.60
2023-04-15T21:41:09.742Z,9.59
2023-04-15T21:43:37.990Z,9.58
2023-04-15T21:46:56.521Z,9.57
2023-04-15T21:49:25.526Z,9.59
2023-04-15T21:51:55.011Z,9.57
2023-04-15T21:54:23.022Z,9.56
2023-04-15T21:56:51.093Z,9.52
2023-04-15T21:59:19.065Z,9.48
2023-04-15T22:01:47.590Z,9.45
2023-04-15T22:04:16.002Z,9.44
2023-04-15T22:06:44.099Z,9.41
2023-04-15T22:09:14.422Z,9.37
2023-04-15T22:11:42.631Z,9.37
2023-04-15T22:14:10.968Z,9.33
2023-04-15T22:16:39.057Z,9.27
2023-04-15T22:19:07.373Z,9.23
2023-04-15T22:21:35.695Z,9.19
2023-04-15T22:24:33.564Z,9.15
2023-04-15T22:26:55.172Z,9.13
2023-04-15T22:29:23.200Z,9.06
2023-04-15T22:31:51.234Z,9.03
2023-04-15T22:34:21.355Z,8.99
2023-04-15T22:36:49.372Z,8.97
2023-04-15T22:39:17.480Z,8.93
2023-04-15T22:41:45.828Z,8.87
2023-04-15T22:44:15.172Z,8.85
2023-04-15T22:46:43.931Z,8.82
2023-04-15T22:49:12.133Z,8.76
2023-04-15T22:51:40.178Z,8.71
2023-04-15T22:54:08.119Z,8.69
2023-04-15T22:56:36.124Z,8.67
2023-04-15T22:59:04.082Z,8.65
2023-04-15T23:01:33.498Z,8.64
2023-04-15T23:04:09.141Z,8.63
2023-04-15T23:06:49.606Z,8.63
2023-04-15T23:09:17.604Z,8.60
2023-04-15T23:11:45.619Z,8.58
2023-04-15T23:14:13.577Z,8.55
2023-04-15T23:16:43.028Z,8.53
2023-04-15T23:19:11.444Z,8.51
2023-04-15T23:21:39.710Z,8.49
2023-04-15T23:24:08.013Z,8.45
2023-04-15T23:26:35.947Z,8.40
2023-04-15T23:29:03.894Z,8.36
2023-04-15T23:31:31.885Z,8.35
2023-04-15T23:34:01.225Z,8.31
2023-04-15T23:36:29.228Z,8.27
2023-04-15T23:39:00.981Z,8.26
2023-04-15T23:41:28.998Z,8.23
2023-04-15T23:43:56.948Z,8.19
2023-04-15T23:47:44.449Z,8.15
2023-04-15T23:50:13.881Z,8.14
2023-04-15T23:52:41.913Z,8.13
2023-04-15T23:55:10.613Z,8.12
2023-04-15T23:57:38.576Z,8.09
